sensor_id;sensor_type;location;lat;lon;timestamp;temperature;humidity
52495;DHT22;38405;53.212;5.660;2022-08-20T00:00:34;17.00;99.90
52495;DHT22;38405;53.212;5.660;2022-08-20T00:03:07;16.90;99.90
52495;DHT22;38405;53.212;5.660;2022-08-20T00:05:37;16.90;99.90
52495;DHT22;38405;53.212;5.660;2022-08-20T00:08:04;17.00;99.90
52495;DHT22;38405;53.212;5.660;2022-08-20T00:10:31;17.00;99.90
52495;DHT22;38405;53.212;5.660;2022-08-20T00:12:57;17.00;99.90
52495;DHT22;38405;53.212;5.660;2022-08-20T00:15:27;17.00;99.90
52495;DHT22;38405;53.212;5.660;2022-08-20T00:17:54;16.90;99.90
52495;DHT22;38405;53.212;5.660;2022-08-20T00:20:24;16.90;99.90
52495;DHT22;38405;53.212;5.660;2022-08-20T00:22:49;16.90;99.90
52495;DHT22;38405;53.212;5.660;2022-08-20T00:25:16;16.90;99.90
52495;DHT22;38405;53.212;5.660;2022-08-20T00:27:42;16.80;99.90
52495;DHT22;38405;53.212;5.660;2022-08-20T00:30:10;16.70;99.90
52495;DHT22;38405;53.212;5.660;2022-08-20T00:35:15;16.50;99.90
52495;DHT22;38405;53.212;5.660;2022-08-20T00:37:41;16.50;99.90
52495;DHT22;38405;53.212;5.660;2022-08-20T00:40:09;16.50;99.90
52495;DHT22;38405;53.212;5.660;2022-08-20T00:42:47;16.50;99.90
52495;DHT22;38405;53.212;5.660;2022-08-20T00:45:15;16.50;99.90
52495;DHT22;38405;53.212;5.660;2022-08-20T00:47:41;16.40;99.90
52495;DHT22;38405;53.212;5.660;2022-08-20T00:50:14;16.40;99.90
52495;DHT22;38405;53.212;5.660;2022-08-20T00:52:42;16.30;99.90
52495;DHT22;38405;53.212;5.660;2022-08-20T00:55:09;16.30;99.90
52495;DHT22;38405;53.212;5.660;2022-08-20T00:57:42;16.20;99.90
52495;DHT22;38405;53.212;5.660;2022-08-20T01:00:10;16.20;99.90
52495;DHT22;38405;53.212;5.660;2022-08-20T01:02:38;16.10;99.90
52495;DHT22;38405;53.212;5.660;2022-08-20T01:05:05;16.10;99.90
52495;DHT22;38405;53.212;5.660;2022-08-20T01:07:34;16.00;99.90
52495;DHT22;38405;53.212;5.660;2022-08-20T01:10:03;16.00;99.90
52495;DHT22;38405;53.212;5.660;2022-08-20T01:12:30;16.00;99.90
52495;DHT22;38405;53.212;5.660;2022-08-20T01:14:59;16.00;99.90
52495;DHT22;38405;53.212;5.660;2022-08-20T01:17:28;16.00;99.90
52495;DHT22;38405;53.212;5.660;2022-08-20T01:20:05;16.00;99.90
52495;DHT22;38405;53.212;5.660;2022-08-20T01:22:39;16.10;99.90
52495;DHT22;38405;53.212;5.660;2022-08-20T01:28:13;16.10;99.90
52495;DHT22;38405;53.212;5.660;2022-08-20T01:30:41;16.20;99.90
52495;DHT22;38405;53.212;5.660;2022-08-20T01:33:07;16.20;99.90
52495;DHT22;38405;53.212;5.660;2022-08-20T01:35:39;16.30;99.90
52495;DHT22;38405;53.212;5.660;2022-08-20T01:38:06;16.20;99.90
52495;DHT22;38405;53.212;5.660;2022-08-20T01:41:03;16.30;99.90
52495;DHT22;38405;53.212;5.660;2022-08-20T01:43:31;16.40;99.90
52495;DHT22;38405;53.212;5.660;2022-08-20T01:45:57;16.50;99.90
52495;DHT22;38405;53.212;5.660;2022-08-20T01:48:23;16.50;99.90
52495;DHT22;38405;53.212;5.660;2022-08-20T01:51:05;16.50;99.90
52495;DHT22;38405;53.212;5.660;2022-08-20T01:53:34;16.50;99.90
52495;DHT22;38405;53.212;5.660;2022-08-20T01:56:05;16.50;99.90
52495;DHT22;38405;53.212;5.660;2022-08-20T01:58:33;16.50;99.90
52495;DHT22;38405;53.212;5.660;2022-08-20T02:00:59;16.50;99.90
52495;DHT22;38405;53.212;5.660;2022-08-20T02:03:25;16.60;99.90
52495;DHT22;38405;53.212;5.660;2022-08-20T02:05:51;16.40;99.90
52495;DHT22;38405;53.212;5.660;2022-08-20T02:08:21;16.30;99.90
52495;DHT22;38405;53.212;5.660;2022-08-20T02:10:48;16.40;99.90
52495;DHT22;38405;53.212;5.660;2022-08-20T02:13:14;16.30;99.90
52495;DHT22;38405;53.212;5.660;2022-08-20T02:15:39;16.30;99.90
52495;DHT22;38405;53.212;5.660;2022-08-20T02:18:08;16.30;99.90
52495;DHT22;38405;53.212;5.660;2022-08-20T02:20:35;16.20;99.90
52495;DHT22;38405;53.212;5.660;2022-08-20T02:23:01;16.20;99.90
52495;DHT22;38405;53.212;5.660;2022-08-20T02:25:32;16.10;99.90
52495;DHT22;38405;53.212;5.660;2022-08-20T02:28:00;16.10;99.90
52495;DHT22;38405;53.212;5.660;2022-08-20T02:30:30;16.10;99.90
52495;DHT22;38405;53.212;5.660;2022-08-20T02:32:59;16.00;99.90
52495;DHT22;38405;53.212;5.660;2022-08-20T02:35:25;16.00;99.90
52495;DHT22;38405;53.212;5.660;2022-08-20T02:37:52;15.90;99.90
52495;DHT22;38405;53.212;5.660;2022-08-20T02:40:20;15.90;99.90
52495;DHT22;38405;53.212;5.660;2022-08-20T02:42:46;15.90;99.90
52495;DHT22;38405;53.212;5.660;2022-08-20T02:45:14;15.80;99.90
52495;DHT22;38405;53.212;5.660;2022-08-20T02:47:42;15.80;99.90
52495;DHT22;38405;53.212;5.660;2022-08-20T02:50:12;15.80;99.90
52495;DHT22;38405;53.212;5.660;2022-08-20T02:52:39;15.80;99.90
52495;DHT22;38405;53.212;5.660;2022-08-20T02:55:05;15.70;99.90
52495;DHT22;38405;53.212;5.660;2022-08-20T02:57:31;15.70;99.90
52495;DHT22;38405;53.212;5.660;2022-08-20T02:59:57;15.60;99.90
52495;DHT22;38405;53.212;5.660;2022-08-20T03:02:23;15.50;99.90
52495;DHT22;38405;53.212;5.660;2022-08-20T03:04:49;15.50;99.90
52495;DHT22;38405;53.212;5.660;2022-08-20T03:07:14;15.40;99.90
52495;DHT22;38405;53.212;5.660;2022-08-20T03:09:40;15.40;99.90
52495;DHT22;38405;53.212;5.660;2022-08-20T03:12:06;15.20;99.90
52495;DHT22;38405;53.212;5.660;2022-08-20T03:14:33;15.20;99.90
52495;DHT22;38405;53.212;5.660;2022-08-20T03:16:59;15.10;99.90
52495;DHT22;38405;53.212;5.660;2022-08-20T03:19:25;15.00;99.90
52495;DHT22;38405;53.212;5.660;2022-08-20T03:21:51;14.90;99.90
52495;DHT22;38405;53.212;5.660;2022-08-20T03:24:17;14.80;99.90
52495;DHT22;38405;53.212;5.660;2022-08-20T03:26:43;14.70;99.90
52495;DHT22;38405;53.212;5.660;2022-08-20T03:29:08;14.60;99.90
52495;DHT22;38405;53.212;5.660;2022-08-20T03:31:34;14.60;99.90
52495;DHT22;38405;53.212;5.660;2022-08-20T03:34:00;14.50;99.90
52495;DHT22;38405;53.212;5.660;2022-08-20T03:36:27;14.40;99.90
52495;DHT22;38405;53.212;5.660;2022-08-20T03:38:53;14.30;99.90
52495;DHT22;38405;53.212;5.660;2022-08-20T03:41:19;14.30;99.90
52495;DHT22;38405;53.212;5.660;2022-08-20T03:43:45;14.20;99.90
52495;DHT22;38405;53.212;5.660;2022-08-20T03:46:10;14.10;99.90
52495;DHT22;38405;53.212;5.660;2022-08-20T03:48:36;14.00;99.90
52495;DHT22;38405;53.212;5.660;2022-08-20T03:51:03;14.00;99.90
52495;DHT22;38405;53.212;5.660;2022-08-20T03:53:29;13.90;99.90
52495;DHT22;38405;53.212;5.660;2022-08-20T03:55:57;13.80;99.90
52495;DHT22;38405;53.212;5.660;2022-08-20T03:58:26;13.80;99.90
52495;DHT22;38405;53.212;5.660;2022-08-20T04:00:53;13.80;99.90
52495;DHT22;38405;53.212;5.660;2022-08-20T04:03:19;13.80;99.90
52495;DHT22;38405;53.212;5.660;2022-08-20T04:05:45;13.80;99.90
52495;DHT22;38405;53.212;5.660;2022-08-20T04:08:19;13.70;99.90
52495;DHT22;38405;53.212;5.660;2022-08-20T04:10:47;13.70;99.90
52495;DHT22;38405;53.212;5.660;2022-08-20T04:13:14;13.60;99.90
52495;DHT22;38405;53.212;5.660;2022-08-20T04:15:40;13.50;99.90
52495;DHT22;38405;53.212;5.660;2022-08-20T04:18:08;13.50;99.90
52495;DHT22;38405;53.212;5.660;2022-08-20T04:20:37;13.50;99.90
52495;DHT22;38405;53.212;5.660;2022-08-20T04:23:03;13.50;99.90
52495;DHT22;38405;53.212;5.660;2022-08-20T04:25:31;13.50;99.90
52495;DHT22;38405;53.212;5.660;2022-08-20T04:27:58;13.40;99.90
52495;DHT22;38405;53.212;5.660;2022-08-20T04:30:25;13.30;99.90
52495;DHT22;38405;53.212;5.660;2022-08-20T04:32:51;13.30;99.90
52495;DHT22;38405;53.212;5.660;2022-08-20T04:35:17;13.30;99.90
52495;DHT22;38405;53.212;5.660;2022-08-20T04:37:47;13.20;99.90
52495;DHT22;38405;53.212;5.660;2022-08-20T04:40:15;13.20;99.90
52495;DHT22;38405;53.212;5.660;2022-08-20T04:43:01;13.30;99.90
52495;DHT22;38405;53.212;5.660;2022-08-20T04:45:29;13.30;99.90
52495;DHT22;38405;53.212;5.660;2022-08-20T04:47:55;13.30;99.90
52495;DHT22;38405;53.212;5.660;2022-08-20T04:50:21;13.30;99.90
52495;DHT22;38405;53.212;5.660;2022-08-20T04:52:47;13.20;99.90
52495;DHT22;38405;53.212;5.660;2022-08-20T04:55:14;13.20;99.90
52495;DHT22;38405;53.212;5.660;2022-08-20T04:57:41;13.20;99.90
52495;DHT22;38405;53.212;5.660;2022-08-20T05:00:10;13.10;99.90
52495;DHT22;38405;53.212;5.660;2022-08-20T05:02:37;13.20;99.90
52495;DHT22;38405;53.212;5.660;2022-08-20T05:05:04;13.20;99.90
52495;DHT22;38405;53.212;5.660;2022-08-20T05:07:37;13.20;99.90
52495;DHT22;38405;53.212;5.660;2022-08-20T05:10:05;13.30;99.90
52495;DHT22;38405;53.212;5.660;2022-08-20T05:12:30;13.20;99.90
52495;DHT22;38405;53.212;5.660;2022-08-20T05:14:56;13.20;99.90
52495;DHT22;38405;53.212;5.660;2022-08-20T05:17:22;13.20;99.90
52495;DHT22;38405;53.212;5.660;2022-08-20T05:19:50;13.20;99.90
52495;DHT22;38405;53.212;5.660;2022-08-20T05:22:16;13.20;99.90
52495;DHT22;38405;53.212;5.660;2022-08-20T05:24:42;13.20;99.90
52495;DHT22;38405;53.212;5.660;2022-08-20T05:27:08;13.30;99.90
52495;DHT22;38405;53.212;5.660;2022-08-20T05:29:34;13.40;99.90
52495;DHT22;38405;53.212;5.660;2022-08-20T05:32:00;13.40;99.90
52495;DHT22;38405;53.212;5.660;2022-08-20T05:34:26;13.40;99.90
52495;DHT22;38405;53.212;5.660;2022-08-20T05:36:51;13.50;99.90
52495;DHT22;38405;53.212;5.660;2022-08-20T05:39:21;13.60;99.90
52495;DHT22;38405;53.212;5.660;2022-08-20T05:41:48;13.60;99.90
52495;DHT22;38405;53.212;5.660;2022-08-20T05:44:16;13.70;99.90
52495;DHT22;38405;53.212;5.660;2022-08-20T05:46:43;13.80;99.90
52495;DHT22;38405;53.212;5.660;2022-08-20T05:49:18;14.00;99.90
52495;DHT22;38405;53.212;5.660;2022-08-20T05:51:44;13.90;99.90
52495;DHT22;38405;53.212;5.660;2022-08-20T05:54:11;13.90;99.90
52495;DHT22;38405;53.212;5.660;2022-08-20T05:56:37;14.10;99.90
52495;DHT22;38405;53.212;5.660;2022-08-20T05:59:05;14.10;99.90
52495;DHT22;38405;53.212;5.660;2022-08-20T06:01:32;14.20;99.90
52495;DHT22;38405;53.212;5.660;2022-08-20T06:03:59;14.40;99.90
52495;DHT22;38405;53.212;5.660;2022-08-20T06:06:44;14.40;99.90
52495;DHT22;38405;53.212;5.660;2022-08-20T06:09:09;14.50;99.90
52495;DHT22;38405;53.212;5.660;2022-08-20T06:11:35;14.60;99.90
52495;DHT22;38405;53.212;5.660;2022-08-20T06:14:01;14.80;99.90
52495;DHT22;38405;53.212;5.660;2022-08-20T06:16:28;14.90;99.90
52495;DHT22;38405;53.212;5.660;2022-08-20T06:18:54;15.00;99.90
52495;DHT22;38405;53.212;5.660;2022-08-20T06:21:19;15.10;99.90
52495;DHT22;38405;53.212;5.660;2022-08-20T06:23:45;15.20;99.90
52495;DHT22;38405;53.212;5.660;2022-08-20T06:26:11;15.30;99.90
52495;DHT22;38405;53.212;5.660;2022-08-20T06:28:36;15.50;99.90
52495;DHT22;38405;53.212;5.660;2022-08-20T06:31:02;15.60;99.90
52495;DHT22;38405;53.212;5.660;2022-08-20T06:33:27;15.70;99.90
52495;DHT22;38405;53.212;5.660;2022-08-20T06:35:53;15.80;99.90
52495;DHT22;38405;53.212;5.660;2022-08-20T06:38:20;16.00;99.90
52495;DHT22;38405;53.212;5.660;2022-08-20T06:40:45;16.10;99.90
52495;DHT22;38405;53.212;5.660;2022-08-20T06:43:11;16.30;99.90
52495;DHT22;38405;53.212;5.660;2022-08-20T06:45:38;16.40;99.90
52495;DHT22;38405;53.212;5.660;2022-08-20T06:48:07;16.60;99.90
52495;DHT22;38405;53.212;5.660;2022-08-20T06:50:35;16.80;99.90
52495;DHT22;38405;53.212;5.660;2022-08-20T06:53:06;17.70;99.90
52495;DHT22;38405;53.212;5.660;2022-08-20T06:55:33;19.50;99.90
52495;DHT22;38405;53.212;5.660;2022-08-20T06:58:04;21.40;99.90
52495;DHT22;38405;53.212;5.660;2022-08-20T07:00:32;23.00;99.90
52495;DHT22;38405;53.212;5.660;2022-08-20T07:02:58;24.20;99.90
52495;DHT22;38405;53.212;5.660;2022-08-20T07:05:29;25.30;99.90
52495;DHT22;38405;53.212;5.660;2022-08-20T07:07:55;26.40;99.90
52495;DHT22;38405;53.212;5.660;2022-08-20T07:10:22;27.30;99.90
52495;DHT22;38405;53.212;5.660;2022-08-20T07:12:49;28.10;99.90
52495;DHT22;38405;53.212;5.660;2022-08-20T07:15:16;28.90;99.90
52495;DHT22;38405;53.212;5.660;2022-08-20T07:17:47;29.60;99.90
52495;DHT22;38405;53.212;5.660;2022-08-20T07:20:14;30.20;99.90
52495;DHT22;38405;53.212;5.660;2022-08-20T07:22:40;30.90;99.90
52495;DHT22;38405;53.212;5.660;2022-08-20T07:25:08;31.10;99.90
52495;DHT22;38405;53.212;5.660;2022-08-20T07:27:34;31.50;99.90
52495;DHT22;38405;53.212;5.660;2022-08-20T07:30:00;31.90;99.90
52495;DHT22;38405;53.212;5.660;2022-08-20T07:32:45;32.20;99.90
52495;DHT22;38405;53.212;5.660;2022-08-20T07:35:13;32.70;99.30
52495;DHT22;38405;53.212;5.660;2022-08-20T07:37:42;33.00;97.90
52495;DHT22;38405;53.212;5.660;2022-08-20T07:40:12;32.90;97.70
52495;DHT22;38405;53.212;5.660;2022-08-20T07:42:38;33.10;97.10
52495;DHT22;38405;53.212;5.660;2022-08-20T07:45:09;33.20;96.30
52495;DHT22;38405;53.212;5.660;2022-08-20T07:47:39;33.40;93.80
52495;DHT22;38405;53.212;5.660;2022-08-20T07:50:07;33.40;94.20
52495;DHT22;38405;53.212;5.660;2022-08-20T07:52:33;33.40;94.50
52495;DHT22;38405;53.212;5.660;2022-08-20T07:55:07;33.40;93.70
52495;DHT22;38405;53.212;5.660;2022-08-20T07:57:34;33.50;93.20
52495;DHT22;38405;53.212;5.660;2022-08-20T07:59:59;33.70;93.10
52495;DHT22;38405;53.212;5.660;2022-08-20T08:02:26;33.90;92.60
52495;DHT22;38405;53.212;5.660;2022-08-20T08:04:53;34.30;92.10
52495;DHT22;38405;53.212;5.660;2022-08-20T08:07:19;34.50;92.00
52495;DHT22;38405;53.212;5.660;2022-08-20T08:09:46;34.70;91.60
52495;DHT22;38405;53.212;5.660;2022-08-20T08:12:14;34.80;90.90
52495;DHT22;38405;53.212;5.660;2022-08-20T08:14:40;34.70;90.30
52495;DHT22;38405;53.212;5.660;2022-08-20T08:17:08;35.00;90.10
52495;DHT22;38405;53.212;5.660;2022-08-20T08:19:40;35.00;88.70
52495;DHT22;38405;53.212;5.660;2022-08-20T08:22:09;35.10;88.00
52495;DHT22;38405;53.212;5.660;2022-08-20T08:24:39;35.10;87.90
52495;DHT22;38405;53.212;5.660;2022-08-20T08:27:05;34.90;87.10
52495;DHT22;38405;53.212;5.660;2022-08-20T08:29:32;34.60;87.00
52495;DHT22;38405;53.212;5.660;2022-08-20T08:32:00;34.70;86.20
52495;DHT22;38405;53.212;5.660;2022-08-20T08:34:25;34.70;84.80
52495;DHT22;38405;53.212;5.660;2022-08-20T08:36:51;33.80;85.10
52495;DHT22;38405;53.212;5.660;2022-08-20T08:39:18;33.90;86.20
52495;DHT22;38405;53.212;5.660;2022-08-20T08:41:50;33.60;84.90
52495;DHT22;38405;53.212;5.660;2022-08-20T08:44:19;33.90;83.70
52495;DHT22;38405;53.212;5.660;2022-08-20T08:46:58;34.10;84.90
52495;DHT22;38405;53.212;5.660;2022-08-20T08:49:30;34.20;82.10
52495;DHT22;38405;53.212;5.660;2022-08-20T08:52:36;34.00;84.70
52495;DHT22;38405;53.212;5.660;2022-08-20T08:54:55;33.60;84.40
52495;DHT22;38405;53.212;5.660;2022-08-20T08:57:22;33.70;84.80
52495;DHT22;38405;53.212;5.660;2022-08-20T08:59:58;33.70;84.80
52495;DHT22;38405;53.212;5.660;2022-08-20T09:02:26;34.00;84.50
52495;DHT22;38405;53.212;5.660;2022-08-20T09:04:53;34.10;85.30
52495;DHT22;38405;53.212;5.660;2022-08-20T09:07:21;34.00;85.00
52495;DHT22;38405;53.212;5.660;2022-08-20T09:09:49;33.60;83.70
52495;DHT22;38405;53.212;5.660;2022-08-20T09:12:19;32.90;83.60
52495;DHT22;38405;53.212;5.660;2022-08-20T09:14:46;32.50;83.10
52495;DHT22;38405;53.212;5.660;2022-08-20T09:17:13;32.50;83.40
52495;DHT22;38405;53.212;5.660;2022-08-20T09:19:39;32.60;84.00
52495;DHT22;38405;53.212;5.660;2022-08-20T09:22:16;31.70;82.50
52495;DHT22;38405;53.212;5.660;2022-08-20T09:24:43;31.20;80.60
52495;DHT22;38405;53.212;5.660;2022-08-20T09:27:09;30.90;84.10
52495;DHT22;38405;53.212;5.660;2022-08-20T09:29:35;30.90;84.20
52495;DHT22;38405;53.212;5.660;2022-08-20T09:32:17;30.70;84.00
52495;DHT22;38405;53.212;5.660;2022-08-20T09:34:47;30.60;83.50
52495;DHT22;38405;53.212;5.660;2022-08-20T09:37:13;30.40;84.70
52495;DHT22;38405;53.212;5.660;2022-08-20T09:39:39;30.10;85.50
52495;DHT22;38405;53.212;5.660;2022-08-20T09:42:11;29.80;84.90
52495;DHT22;38405;53.212;5.660;2022-08-20T09:44:37;29.50;81.70
52495;DHT22;38405;53.212;5.660;2022-08-20T09:47:03;29.20;85.00
52495;DHT22;38405;53.212;5.660;2022-08-20T09:49:28;29.00;85.50
52495;DHT22;38405;53.212;5.660;2022-08-20T09:51:54;28.90;85.40
52495;DHT22;38405;53.212;5.660;2022-08-20T09:54:21;28.70;84.40
52495;DHT22;38405;53.212;5.660;2022-08-20T09:56:47;28.40;83.30
52495;DHT22;38405;53.212;5.660;2022-08-20T09:59:14;28.20;83.40
52495;DHT22;38405;53.212;5.660;2022-08-20T10:01:40;28.10;84.70
52495;DHT22;38405;53.212;5.660;2022-08-20T10:04:06;28.20;85.20
52495;DHT22;38405;53.212;5.660;2022-08-20T10:06:38;27.90;84.80
52495;DHT22;38405;53.212;5.660;2022-08-20T10:09:04;27.80;82.90
52495;DHT22;38405;53.212;5.660;2022-08-20T10:11:30;27.70;85.20
52495;DHT22;38405;53.212;5.660;2022-08-20T10:13:56;27.80;85.80
52495;DHT22;38405;53.212;5.660;2022-08-20T10:16:21;27.90;86.30
52495;DHT22;38405;53.212;5.660;2022-08-20T10:18:47;28.00;86.60
52495;DHT22;38405;53.212;5.660;2022-08-20T10:21:14;28.10;86.40
52495;DHT22;38405;53.212;5.660;2022-08-20T10:23:40;28.10;86.40
52495;DHT22;38405;53.212;5.660;2022-08-20T10:26:10;28.10;85.90
52495;DHT22;38405;53.212;5.660;2022-08-20T10:28:36;27.80;85.30
52495;DHT22;38405;53.212;5.660;2022-08-20T10:31:05;27.50;85.40
52495;DHT22;38405;53.212;5.660;2022-08-20T10:33:31;26.80;84.80
52495;DHT22;38405;53.212;5.660;2022-08-20T10:35:56;26.40;85.30
52495;DHT22;38405;53.212;5.660;2022-08-20T10:38:22;26.00;85.80
52495;DHT22;38405;53.212;5.660;2022-08-20T10:40:48;25.80;86.40
52495;DHT22;38405;53.212;5.660;2022-08-20T10:43:13;26.10;87.80
52495;DHT22;38405;53.212;5.660;2022-08-20T10:45:39;26.50;89.10
52495;DHT22;38405;53.212;5.660;2022-08-20T10:48:04;26.90;88.10
52495;DHT22;38405;53.212;5.660;2022-08-20T10:50:32;27.20;88.90
52495;DHT22;38405;53.212;5.660;2022-08-20T10:52:57;27.40;88.00
52495;DHT22;38405;53.212;5.660;2022-08-20T10:55:23;27.50;87.40
52495;DHT22;38405;53.212;5.660;2022-08-20T10:57:49;27.60;86.60
52495;DHT22;38405;53.212;5.660;2022-08-20T11:00:16;27.80;86.20
52495;DHT22;38405;53.212;5.660;2022-08-20T11:02:41;27.80;85.60
52495;DHT22;38405;53.212;5.660;2022-08-20T11:05:07;27.90;85.50
52495;DHT22;38405;53.212;5.660;2022-08-20T11:07:39;27.90;85.60
52495;DHT22;38405;53.212;5.660;2022-08-20T11:10:07;28.00;85.10
52495;DHT22;38405;53.212;5.660;2022-08-20T11:12:33;27.90;84.40
52495;DHT22;38405;53.212;5.660;2022-08-20T11:14:58;27.70;83.90
52495;DHT22;38405;53.212;5.660;2022-08-20T11:17:30;27.70;84.30
52495;DHT22;38405;53.212;5.660;2022-08-20T11:19:57;27.80;84.10
52495;DHT22;38405;53.212;5.660;2022-08-20T11:22:24;27.80;84.80
52495;DHT22;38405;53.212;5.660;2022-08-20T11:24:51;27.90;85.40
52495;DHT22;38405;53.212;5.660;2022-08-20T11:27:22;28.00;85.10
52495;DHT22;38405;53.212;5.660;2022-08-20T11:29:48;28.00;84.60
52495;DHT22;38405;53.212;5.660;2022-08-20T11:32:14;27.80;84.70
52495;DHT22;38405;53.212;5.660;2022-08-20T11:34:40;27.90;84.80
52495;DHT22;38405;53.212;5.660;2022-08-20T11:37:06;27.80;84.30
52495;DHT22;38405;53.212;5.660;2022-08-20T11:39:31;27.70;85.20
52495;DHT22;38405;53.212;5.660;2022-08-20T11:41:57;27.80;86.50
52495;DHT22;38405;53.212;5.660;2022-08-20T11:44:22;27.90;86.80
52495;DHT22;38405;53.212;5.660;2022-08-20T11:46:49;27.70;83.80
52495;DHT22;38405;53.212;5.660;2022-08-20T11:49:14;27.70;83.80
52495;DHT22;38405;53.212;5.660;2022-08-20T11:51:40;27.50;84.70
52495;DHT22;38405;53.212;5.660;2022-08-20T11:54:06;27.10;85.00
52495;DHT22;38405;53.212;5.660;2022-08-20T11:56:32;26.90;86.10
52495;DHT22;38405;53.212;5.660;2022-08-20T11:58:58;26.90;87.00
52495;DHT22;38405;53.212;5.660;2022-08-20T12:01:23;27.00;87.90
52495;DHT22;38405;53.212;5.660;2022-08-20T12:03:49;27.00;86.80
52495;DHT22;38405;53.212;5.660;2022-08-20T12:06:15;26.70;85.70
52495;DHT22;38405;53.212;5.660;2022-08-20T12:08:40;26.30;86.00
52495;DHT22;38405;53.212;5.660;2022-08-20T12:11:06;26.30;87.50
52495;DHT22;38405;53.212;5.660;2022-08-20T12:13:34;26.40;88.90
52495;DHT22;38405;53.212;5.660;2022-08-20T12:16:00;26.50;88.00
52495;DHT22;38405;53.212;5.660;2022-08-20T12:18:26;26.30;88.00
52495;DHT22;38405;53.212;5.660;2022-08-20T12:20:52;26.10;86.40
52495;DHT22;38405;53.212;5.660;2022-08-20T12:23:18;26.10;86.40
52495;DHT22;38405;53.212;5.660;2022-08-20T12:25:43;26.20;86.70
52495;DHT22;38405;53.212;5.660;2022-08-20T12:28:12;26.40;87.00
52495;DHT22;38405;53.212;5.660;2022-08-20T12:30:38;26.60;86.90
52495;DHT22;38405;53.212;5.660;2022-08-20T12:33:04;26.60;86.10
52495;DHT22;38405;53.212;5.660;2022-08-20T12:35:30;26.20;85.20
52495;DHT22;38405;53.212;5.660;2022-08-20T12:37:56;26.00;85.40
52495;DHT22;38405;53.212;5.660;2022-08-20T12:40:25;25.90;84.70
52495;DHT22;38405;53.212;5.660;2022-08-20T12:42:51;25.90;85.20
52495;DHT22;38405;53.212;5.660;2022-08-20T12:45:17;25.80;85.50
52495;DHT22;38405;53.212;5.660;2022-08-20T12:47:45;25.70;85.10
52495;DHT22;38405;53.212;5.660;2022-08-20T12:50:18;25.80;83.90
52495;DHT22;38405;53.212;5.660;2022-08-20T12:52:44;25.80;84.30
52495;DHT22;38405;53.212;5.660;2022-08-20T12:55:13;25.70;84.30
52495;DHT22;38405;53.212;5.660;2022-08-20T12:57:48;25.70;86.30
52495;DHT22;38405;53.212;5.660;2022-08-20T13:00:34;25.70;86.60
52495;DHT22;38405;53.212;5.660;2022-08-20T13:03:02;25.60;87.00
52495;DHT22;38405;53.212;5.660;2022-08-20T13:05:29;25.50;86.90
52495;DHT22;38405;53.212;5.660;2022-08-20T13:07:55;25.40;87.00
52495;DHT22;38405;53.212;5.660;2022-08-20T13:10:27;25.20;86.70
52495;DHT22;38405;53.212;5.660;2022-08-20T13:12:54;25.10;86.70
52495;DHT22;38405;53.212;5.660;2022-08-20T13:15:20;25.00;88.90
52495;DHT22;38405;53.212;5.660;2022-08-20T13:17:50;24.90;89.00
52495;DHT22;38405;53.212;5.660;2022-08-20T13:20:16;24.80;90.00
52495;DHT22;38405;53.212;5.660;2022-08-20T13:22:42;24.60;90.20
52495;DHT22;38405;53.212;5.660;2022-08-20T13:25:09;24.60;90.50
52495;DHT22;38405;53.212;5.660;2022-08-20T13:27:36;24.60;90.60
52495;DHT22;38405;53.212;5.660;2022-08-20T13:30:05;24.70;90.40
52495;DHT22;38405;53.212;5.660;2022-08-20T13:32:32;24.60;90.60
52495;DHT22;38405;53.212;5.660;2022-08-20T13:34:57;24.60;90.30
52495;DHT22;38405;53.212;5.660;2022-08-20T13:37:25;24.70;90.50
52495;DHT22;38405;53.212;5.660;2022-08-20T13:39:52;24.60;90.80
52495;DHT22;38405;53.212;5.660;2022-08-20T13:42:18;24.50;91.10
52495;DHT22;38405;53.212;5.660;2022-08-20T13:44:43;24.50;91.00
52495;DHT22;38405;53.212;5.660;2022-08-20T13:47:30;24.30;91.30
52495;DHT22;38405;53.212;5.660;2022-08-20T13:50:04;24.30;92.00
52495;DHT22;38405;53.212;5.660;2022-08-20T13:52:31;24.20;91.40
52495;DHT22;38405;53.212;5.660;2022-08-20T13:54:57;24.20;90.80
52495;DHT22;38405;53.212;5.660;2022-08-20T13:57:23;24.10;90.60
52495;DHT22;38405;53.212;5.660;2022-08-20T13:59:57;24.20;90.80
52495;DHT22;38405;53.212;5.660;2022-08-20T14:02:24;24.20;90.40
52495;DHT22;38405;53.212;5.660;2022-08-20T14:04:50;24.20;90.70
52495;DHT22;38405;53.212;5.660;2022-08-20T14:07:26;24.10;90.50
52495;DHT22;38405;53.212;5.660;2022-08-20T14:09:55;24.10;90.90
52495;DHT22;38405;53.212;5.660;2022-08-20T14:12:22;24.30;90.20
52495;DHT22;38405;53.212;5.660;2022-08-20T14:14:49;24.50;90.20
52495;DHT22;38405;53.212;5.660;2022-08-20T14:17:16;24.70;90.20
52495;DHT22;38405;53.212;5.660;2022-08-20T14:19:42;24.70;90.10
52495;DHT22;38405;53.212;5.660;2022-08-20T14:22:08;24.80;90.30
52495;DHT22;38405;53.212;5.660;2022-08-20T14:24:34;24.70;90.20
52495;DHT22;38405;53.212;5.660;2022-08-20T14:27:04;24.70;90.60
52495;DHT22;38405;53.212;5.660;2022-08-20T14:29:32;24.70;90.80
52495;DHT22;38405;53.212;5.660;2022-08-20T14:31:58;24.50;90.60
52495;DHT22;38405;53.212;5.660;2022-08-20T14:34:24;24.30;90.70
52495;DHT22;38405;53.212;5.660;2022-08-20T14:36:49;24.20;91.10
52495;DHT22;38405;53.212;5.660;2022-08-20T14:39:15;24.00;91.40
52495;DHT22;38405;53.212;5.660;2022-08-20T14:41:40;23.90;91.30
52495;DHT22;38405;53.212;5.660;2022-08-20T14:44:06;23.90;91.60
52495;DHT22;38405;53.212;5.660;2022-08-20T14:46:31;23.80;91.80
52495;DHT22;38405;53.212;5.660;2022-08-20T14:48:57;23.80;91.90
52495;DHT22;38405;53.212;5.660;2022-08-20T14:51:23;23.90;92.20
52495;DHT22;38405;53.212;5.660;2022-08-20T14:53:48;23.90;92.40
52495;DHT22;38405;53.212;5.660;2022-08-20T14:56:15;23.80;92.50
52495;DHT22;38405;53.212;5.660;2022-08-20T14:58:42;23.80;92.60
52495;DHT22;38405;53.212;5.660;2022-08-20T15:01:08;23.80;92.70
52495;DHT22;38405;53.212;5.660;2022-08-20T15:03:33;23.80;92.90
52495;DHT22;38405;53.212;5.660;2022-08-20T15:05:59;23.90;92.90
52495;DHT22;38405;53.212;5.660;2022-08-20T15:08:25;24.00;92.70
52495;DHT22;38405;53.212;5.660;2022-08-20T15:10:51;23.90;92.90
52495;DHT22;38405;53.212;5.660;2022-08-20T15:13:17;23.80;93.30
52495;DHT22;38405;53.212;5.660;2022-08-20T15:15:43;23.70;93.70
52495;DHT22;38405;53.212;5.660;2022-08-20T15:18:09;23.80;94.10
52495;DHT22;38405;53.212;5.660;2022-08-20T15:20:36;23.70;94.40
52495;DHT22;38405;53.212;5.660;2022-08-20T15:23:02;23.70;94.90
52495;DHT22;38405;53.212;5.660;2022-08-20T15:25:31;23.70;95.00
52495;DHT22;38405;53.212;5.660;2022-08-20T15:27:59;23.70;94.90
52495;DHT22;38405;53.212;5.660;2022-08-20T15:30:26;23.50;95.20
52495;DHT22;38405;53.212;5.660;2022-08-20T15:32:52;23.40;95.20
52495;DHT22;38405;53.212;5.660;2022-08-20T15:35:17;23.50;95.30
52495;DHT22;38405;53.212;5.660;2022-08-20T15:37:47;23.50;94.90